This is the latest recevied weather packets stored in our database for station/object XE2G-31. If no packets are shown the sender has not sent any weather packets the latest 10 day(s).
| Time | Temp. | Humidity | Pressure | Rain* | Wind** | Luminosity | Snow |
|---|---|---|---|---|---|---|---|
| 1777662090 | 27.78° C | 61% | 866 hPa | - | - | - | - |
| 1777661143 | 28.33° C | 59% | 867 hPa | - | - | - | - |
| 1777660197 | 27.78° C | 60% | 867 hPa | - | - | - | - |
| 1777659250 | 26.67° C | 62% | 867 hPa | - | - | - | - |
| 1777658303 | 27.78° C | 60% | 867 hPa | - | - | - | - |
| 1777657356 | 26.67° C | 60% | 867 hPa | - | - | - | - |
| 1777656409 | 26.67° C | 63% | 868 hPa | - | - | - | - |
| 1777655462 | 25° C | 65% | 868 hPa | - | - | - | - |
| 1777654515 | 24.44° C | 68% | 868 hPa | - | - | - | - |
| 1777653569 | 23.33° C | 70% | 868 hPa | - | - | - | - |
| 1777652622 | 24.44° C | 65% | 868 hPa | - | - | - | - |
| 1777651675 | 24.44° C | 66% | 868 hPa | - | - | - | - |
| 1777650728 | 25° C | 65% | 868 hPa | - | - | - | - |
| 1777649781 | 24.44° C | 67% | 868 hPa | - | - | - | - |
| 1777648834 | 24.44° C | 67% | 868 hPa | - | - | - | - |
| 1777647888 | 23.89° C | 69% | 868 hPa | - | - | - | - |
| 1777646941 | 24.44° C | 68% | 868 hPa | - | - | - | - |
| 1777645994 | 23.89° C | 73% | 868 hPa | - | - | - | - |
| 1777645047 | 22.78° C | 77% | 868 hPa | - | - | - | - |
| 1777644100 | 22.22° C | 77% | 868 hPa | - | - | - | - |
| 1777643153 | 21.67° C | 78% | 868 hPa | - | - | - | - |
| 1777642206 | 21.67° C | 80% | 868 hPa | - | - | - | - |
| 1777641260 | 21.11° C | 80% | 868 hPa | - | - | - | - |
| 1777640313 | 21.11° C | 81% | 867 hPa | - | - | - | - |
| 1777639366 | 21.11° C | 82% | 867 hPa | - | - | - | - |
* Rain since midnight (hover to see other rain measurements)
** Current wind speed in m/s (hover to see current wind gust speed)